Terminal Aerodrome Forecast
Issued by NWS

Current Version | Previous Version | Text Only | Print | Product List | Glossary On
Versions: 1 2 3 4 5 6 7 8 9 10 11 12 13 14 15 16 17 18 19 20 21 22 23 24 25 26 27 28 29 30 31 32 33 34 35 36 37 38 39 40 41 42 43 44 45 46 47 48 49 50
000
FTUS43 KMKX 241533 AAA
TAFENW
TAF AMD
KENW 241533Z 2416/2512 24012KT P6SM FEW080 SCT250
     FM242200 01010KT P6SM SCT020 BKN090
     FM250000 02010KT P6SM VCSH SCT020 OVC035
     FM250300 03009KT 2SM -RA OVC015
     FM250500 03010KT 1 1/2SM -RA OVC008=

USA.gov is the U.S. government's official web portal to all federal, state and local government web resources and services.